Flight Track Log - Related Links

Times and Time Zones

All times are in EDT time to prevent confusion due to time zone crossing. See the LOF3385 flight status page for this flight to view local times or setup timezone preferences in your user account.

Time Position Orientation Groundspeed Altitude Reporting Facility
EDT Latitude Longitude Course Direction KTS MPH feet Rate Location/Type
Thu 09:25:26 AM 41.9833 -87.8667 143° Southeast 165 190 2,500  Level Chicago TRACON
Thu 09:26:26 AM 41.9333 -87.8167 143° Southeast 233 268 4,200 2,303 Climbing Chicago TRACON
Thu 09:28:31 AM 41.7917 -87.7900 172° South 256 295 9,600 2,471 Climbing Chicago Center
Thu 09:29:33 AM 41.7192 -87.7875 179° South 259 298 11,900 2,032 Climbing Chicago Center
Thu 09:30:35 AM 41.6519 -87.7406 152° Southeast 270 311 13,800 1,742 Climbing Chicago Center
Thu 09:31:37 AM 41.5831 -87.6900 151° Southeast 279 321 15,500 1,548 Climbing Chicago Center
Thu 09:32:39 AM 41.5103 -87.6353 151° Southeast 292 336 17,000 1,258 Climbing Chicago Center
Thu 09:33:41 AM 41.4339 -87.5794 151° Southeast 309 356 18,100 1,415 Climbing Chicago Center
Thu 09:34:42 AM 41.3281 -87.5558 170° South 321 369 19,900 1,561 Climbing Chicago Center
Thu 09:35:44 AM 41.2375 -87.5400 173° South 326 375 21,300 1,355 Climbing Chicago Center
Thu 09:36:46 AM 41.1456 -87.5189 170° South 333 383 22,700 1,355 Climbing Chicago Center
Thu 09:37:48 AM 41.0553 -87.4933 168° South 332 382 24,100 1,113 Climbing Chicago Center
Thu 09:38:50 AM 40.9622 -87.4686 169° South 340 391 25,000 435 Climbing Chicago Center
Thu 09:39:52 AM 40.8678 -87.4136 156° South 369 425 25,000  Level Chicago Center
Thu 09:40:54 AM 40.7478 -87.3356 154° Southeast 399 459 25,000  Level Chicago Center
Thu 09:41:56 AM 40.6453 -87.2681 153° Southeast 410 472 25,000  Level Chicago Center
Thu 09:42:58 AM 40.5389 -87.2019 155° Southeast 420 483 25,000  Level Chicago Center
Thu 09:44:00 AM 40.4400 -87.1383 154° Southeast 428 493 25,000  Level Chicago Center
Thu 09:45:02 AM 40.3122 -87.0567 154° Southeast 428 493 25,000  Level Chicago Center
Thu 09:46:04 AM 40.2047 -86.9889 154° Southeast 430 495 25,000  Level Chicago Center
Thu 09:47:06 AM 40.1219 -86.8769 134° Southeast 435 501 25,000  Level Chicago Center
Thu 09:48:06 AM 40.0511 -86.7500 126° Southeast 430 495 25,000  Level Indianapolis Center
Thu 09:49:08 AM 39.9817 -86.6239 126° Southeast 429 494 25,000  Level Indianapolis Center
Thu 09:50:10 AM 39.9133 -86.5000 126° Southeast 422 486 25,000  Level Indianapolis Center
Thu 09:51:12 AM 39.8450 -86.3786 126° Southeast 417 480 25,000  Level Indianapolis Center
Thu 09:52:14 AM 39.7636 -86.2339 126° Southeast 419 482 25,000  Level Indianapolis Center
Thu 09:53:16 AM 39.7033 -86.1256 126° Southeast 417 480 25,000  Level Indianapolis Center
Thu 09:54:18 AM 39.6222 -85.9828 126° Southeast 411 473 25,000  Level Indianapolis Center
Thu 09:55:20 AM 39.5536 -85.8633 127° Southeast 413 475 25,000  Level Indianapolis Center
Thu 09:56:22 AM 39.4858 -85.7439 126° Southeast 412 474 25,000  Level Indianapolis Center
Thu 09:57:24 AM 39.4361 -85.6125 116° Southeast 411 473 25,000  Level Indianapolis Center
Thu 09:58:26 AM 39.3975 -85.4719 110° East 417 480 25,000  Level Indianapolis Center
Thu 09:59:28 AM 39.3606 -85.3300 109° East 418 481 25,000  Level Indianapolis Center
Thu 10:00:30 AM 39.3164 -85.1622 109° East 413 475 25,000  Level Indianapolis Center
Thu 10:01:32 AM 39.2786 -85.0211 109° East 416 479 25,000  Level Indianapolis Center
Thu 10:02:34 AM 39.2392 -84.8753 109° East 417 480 25,000  Level Indianapolis Center
Thu 10:03:36 AM 39.2003 -84.7344 110° East 415 478 25,000  Level Indianapolis Center
Thu 10:04:38 AM 39.1617 -84.5931 109° East 416 479 25,000  Level Indianapolis Center
Thu 10:05:40 AM 39.1236 -84.4525 109° East 414 476 25,000  Level Indianapolis Center
Thu 10:06:42 AM 39.0858 -84.3117 109° East 414 476 25,000  Level Indianapolis Center
Thu 10:07:44 AM 39.0397 -84.1481 110° East 414 476 25,000  Level Indianapolis Center
Thu 10:08:46 AM 39.0006 -84.0078 110° East 415 478 25,000  Level Indianapolis Center
Thu 10:09:48 AM 38.9619 -83.8667 109° East 416 479 25,000  Level Indianapolis Center
Thu 10:10:50 AM 38.9219 -83.7261 110° East 418 481 25,000  Level Indianapolis Center
Thu 10:11:52 AM 38.8819 -83.5861 110° East 416 479 25,000  Level Indianapolis Center
Thu 10:12:55 AM 38.8425 -83.4461 110° East 415 478 25,000  Level Indianapolis Center
Thu 10:13:57 AM 38.7967 -83.2817 110° East 418 481 25,000  Level Indianapolis Center
Thu 10:14:59 AM 38.7556 -83.1397 110° East 416 479 25,000  Level Indianapolis Center
Thu 10:16:01 AM 38.7153 -83.0022 111° Southeast 413 475 25,000  Level Indianapolis Center
Thu 10:17:03 AM 38.6756 -82.8633 110° East 416 479 25,000  Level Indianapolis Center
Thu 10:18:05 AM 38.6339 -82.7239 111° Southeast 412 474 25,000  Level Indianapolis Center
Thu 10:19:07 AM 38.5939 -82.5844 110° East 415 478 25,000  Level Indianapolis Center
Thu 10:20:09 AM 38.5533 -82.4492 111° Southeast 416 479 25,000  Level Indianapolis Center
Thu 10:21:11 AM 38.5039 -82.2850 111° Southeast 416 479 25,000  Level Indianapolis Center
Thu 10:22:13 AM 38.4636 -82.1483 111° Southeast 414 476 25,000  Level Indianapolis Center
Thu 10:23:15 AM 38.4231 -82.0111 111° Southeast 415 478 25,000  Level Indianapolis Center
Thu 10:24:17 AM 38.3814 -81.8744 111° Southeast 415 478 25,000  Level Indianapolis Center
Thu 10:25:19 AM 38.3344 -81.7442 115° Southeast 410 472 25,000 -484 Level Indianapolis Center
Thu 10:26:21 AM 38.2531 -81.6042 126° Southeast 412 474 24,000 -484 Descending Indianapolis Center
Thu 10:27:23 AM 38.1858 -81.4886 126° Southeast 409 471 24,000 -48 Level Indianapolis Center
Thu 10:28:25 AM 38.1183 -81.3717 126° Southeast 411 473 23,900 -1,016 Descending Indianapolis Center
Thu 10:29:27 AM 38.0475 -81.2525 127° Southeast 421 484 21,900 -2,032 Descending Indianapolis Center
Thu 10:30:29 AM 37.9772 -81.1317 126° Southeast 426 490 19,700 -2,129 Descending Indianapolis Center
Thu 10:31:31 AM 37.9119 -81.0183 126° Southeast 406 467 17,500 -2,110 Descending Indianapolis Center
Thu 10:32:00 AM 37.8717 -80.9558 129° Southeast 408 470 16,500 -2,069 Descending Washington Center
Thu 10:32:58 AM 37.8075 -80.8514 128° Southeast 393 452 14,500 -1,987 Descending Washington Center
Thu 10:34:37 AM 37.7181 -80.6944 126° Southeast 364 419 11,300 -1,736 Descending Indianapolis Center
Thu 10:34:59 AM 37.6928 -80.6572 131° Southeast 368 423 11,000 -220 Descending Washington Center
Thu 10:35:59 AM 37.6344 -80.5589 127° Southeast 356 410 11,000  Level Washington Center
Thu 10:37:00 AM 37.5761 -80.4581 126° Southeast 356 410 11,000 -694 Level Washington Center
Thu 10:38:00 AM 37.5008 -80.4086 152° Southeast 305 351 9,600 -1,932 Descending Washington Center
Thu 10:38:58 AM 37.4353 -80.3808 161° South 279 321 7,200 -1,815 Descending Washington Center
Thu 10:39:59 AM 37.3672 -80.3558 164° South 263 303 6,000 -744 Descending Washington Center
Thu 10:40:59 AM 37.3075 -80.3364 165° South 258 297 5,700 -397 Descending Washington Center
Thu 10:42:00 AM 37.2439 -80.3142 164° South 252 290 5,200 -252 Descending Washington Center
Thu 10:42:58 AM 37.2253 -80.2556 112° Southeast 198 228 5,200 -151 Level Washington Center
Thu 10:43:59 AM 37.2383 -80.1886 76° East 164 189 4,900 -843 Descending Washington Center
Thu 10:44:59 AM 37.2681 -80.1200 61° Northeast 178 205 3,500 -1,160 Descending Washington Center
Thu 10:45:58 AM 37.2886 -80.0689 63° Northeast 179 206 2,600 -915 Descending Washington Center

Login

Don't have an account? Register now (free) for customized features, flight alerts, and more!